Time;durP1;ratioP1;P1;durP2;ratioP2;P2;SDS_P1;SDS_P2;PMS_P1;PMS_P2;Temp;Humidity;BMP_temperature;BMP_pressure;BME280_temperature;BME280_humidity;BME280_pressure;Samples;Min_cycle;Max_cycle;Signal;HPM_P1;HPM_P2
2023/05/25 00:04:51;;;;;;;6.35;2.75;;;12.30;1.00;;;;;;20919053;28;20365;-41
2023/05/25 00:15:12;;;;;;;7.60;2.47;;;12.40;1.00;;;;;;20916753;28;20045;-42
2023/05/25 00:25:33;;;;;;;5.85;1.70;;;12.40;1.00;;;;;;20924136;28;20555;-42
2023/05/25 00:35:56;;;;;;;12.75;2.28;;;12.50;1.00;;;;;;20915430;28;20143;-42
2023/05/25 00:46:17;;;;;;;6.05;2.25;;;12.60;1.00;;;;;;20915540;28;20040;-42
2023/05/25 00:56:39;;;;;;;4.38;2.17;;;12.50;1.00;;;;;;20921809;28;20855;-42
2023/05/25 01:07:03;;;;;;;7.25;2.22;;;12.30;1.00;;;;;;20917234;28;20217;-42
2023/05/25 01:17:25;;;;;;;8.77;2.28;;;12.20;1.00;;;;;;20916555;28;20205;-42
2023/05/25 01:27:53;;;;;;;6.07;2.65;;;11.90;1.00;;;;;;20916264;28;20183;-42
2023/05/25 01:38:14;;;;;;;5.50;2.20;;;11.70;1.00;;;;;;20926569;28;20084;-42
2023/05/25 01:48:57;;;;;;;6.40;2.13;;;11.40;1.00;;;;;;20914575;28;20127;-42
2023/05/25 01:59:20;;;;;;;10.13;2.90;;;11.30;1.00;;;;;;20926842;28;20117;-42
2023/05/25 02:09:41;;;;;;;3.95;1.92;;;11.10;1.00;;;;;;20923479;28;20082;-42
2023/05/25 02:20:07;;;;;;;7.30;3.00;;;10.90;1.00;;;;;;20914317;28;20141;-42
2023/05/25 02:30:28;;;;;;;11.63;2.08;;;10.70;1.00;;;;;;20918532;28;20055;-42
2023/05/25 02:40:49;;;;;;;4.20;1.70;;;10.50;1.00;;;;;;20919763;28;20478;-42
2023/05/25 02:51:10;;;;;;;5.72;2.53;;;10.50;1.40;;;;;;20908430;28;20143;-42
2023/05/25 03:01:33;;;;;;;5.47;1.85;;;10.30;1.00;;;;;;20919991;28;20079;-42
2023/05/25 03:11:54;;;;;;;5.90;2.50;;;10.20;1.90;;;;;;20915299;28;20526;-40
2023/05/25 03:22:15;;;;;;;8.02;2.35;;;10.10;5.20;;;;;;20907549;28;20127;-40
2023/05/25 03:32:36;;;;;;;4.85;1.95;;;10.00;4.70;;;;;;20926902;28;20064;-40
2023/05/25 03:42:57;;;;;;;8.30;1.92;;;9.90;5.00;;;;;;20937102;28;20561;-40
2023/05/25 03:53:18;;;;;;;6.05;2.10;;;9.80;10.10;;;;;;20922062;28;20136;-40
2023/05/25 04:03:39;;;;;;;3.58;1.70;;;9.80;16.80;;;;;;20930693;28;20116;-40
2023/05/25 04:14:00;;;;;;;7.18;2.42;;;9.80;19.00;;;;;;20919406;28;20137;-40
2023/05/25 04:24:21;;;;;;;4.97;1.70;;;9.80;22.70;;;;;;20926189;28;20170;-40
2023/05/25 04:34:45;;;;;;;5.00;2.00;;;9.90;28.00;;;;;;20933253;28;20525;-40
2023/05/25 04:45:10;;;;;;;8.95;2.42;;;10.00;27.40;;;;;;20916775;28;20131;-40
2023/05/25 04:55:31;;;;;;;4.82;2.40;;;10.20;41.80;;;;;;20916570;28;20192;-40
2023/05/25 05:05:52;;;;;;;4.47;2.22;;;10.40;37.60;;;;;;20917297;28;20174;-40
2023/05/25 05:16:13;;;;;;;7.63;2.47;;;10.70;33.70;;;;;;20919223;28;20136;-40
2023/05/25 05:26:35;;;;;;;7.97;2.47;;;11.00;31.10;;;;;;20926917;28;20186;-40
2023/05/25 05:36:56;;;;;;;9.40;2.75;;;11.50;20.50;;;;;;20914124;28;20044;-40
2023/05/25 05:47:17;;;;;;;5.85;2.53;;;11.90;11.70;;;;;;20919613;28;20274;-40
2023/05/25 05:57:38;;;;;;;7.85;3.40;;;12.30;1.00;;;;;;20918628;28;20131;-40
2023/05/25 06:07:59;;;;;;;9.77;3.50;;;12.60;1.00;;;;;;20937753;28;20109;-40
2023/05/25 06:18:20;;;;;;;3.63;1.80;;;12.90;1.00;;;;;;20942919;28;20076;-40
2023/05/25 06:28:41;;;;;;;10.48;3.35;;;13.20;1.00;;;;;;20936774;28;20177;-40
2023/05/25 06:39:03;;;;;;;8.93;2.30;;;13.50;1.00;;;;;;20950577;28;20593;-40
2023/05/25 06:49:24;;;;;;;5.50;2.33;;;13.70;1.00;;;;;;20940329;28;20123;-40
2023/05/25 06:59:45;;;;;;;4.35;1.58;;;14.00;1.00;;;;;;20931408;28;20095;-41
2023/05/25 07:10:07;;;;;;;4.18;1.98;;;14.30;1.00;;;;;;20931227;28;20141;-40
2023/05/25 07:20:28;;;;;;;5.20;1.15;;;14.40;1.00;;;;;;20923788;28;20143;-40
2023/05/25 07:30:49;;;;;;;2.40;1.30;;;14.30;1.00;;;;;;20931458;28;20102;-40
2023/05/25 07:41:12;;;;;;;3.10;1.10;;;14.30;1.00;;;;;;20930028;28;20415;-40
2023/05/25 07:51:33;;;;;;;5.50;1.27;;;14.40;1.00;;;;;;20927107;28;20089;-40
2023/05/25 08:01:54;;;;;;;2.20;1.17;;;14.80;1.00;;;;;;20924166;28;20129;-40
2023/05/25 08:12:15;;;;;;;4.50;0.75;;;15.30;1.00;;;;;;20928740;28;20257;-38
2023/05/25 08:22:36;;;;;;;4.63;1.20;;;15.20;1.00;;;;;;20945947;28;20486;-38
2023/05/25 08:32:57;;;;;;;3.17;1.02;;;14.90;1.00;;;;;;20945329;28;20103;-41
2023/05/25 08:43:18;;;;;;;5.95;3.13;;;14.80;1.00;;;;;;20944472;28;20129;-40
2023/05/25 08:53:40;;;;;;;4.25;1.30;;;14.80;1.00;;;;;;20942118;28;20064;-38
2023/05/25 09:04:01;;;;;;;4.78;1.77;;;14.80;1.00;;;;;;20945758;28;20072;-40
2023/05/25 09:14:23;;;;;;;5.43;1.17;;;14.80;1.00;;;;;;20945644;28;20131;-40
2023/05/25 09:24:44;;;;;;;2.85;1.30;;;14.80;1.00;;;;;;20940059;28;20509;-38
2023/05/25 09:35:07;;;;;;;3.85;1.42;;;14.80;1.00;;;;;;20946640;28;20067;-39
2023/05/25 09:45:28;;;;;;;4.22;1.73;;;14.80;1.00;;;;;;20931591;28;20095;-39
2023/05/25 09:55:50;;;;;;;3.63;1.30;;;14.90;1.00;;;;;;20943269;28;20790;-39
2023/05/25 10:06:13;;;;;;;8.32;2.05;;;15.20;1.00;;;;;;20944587;28;20040;-39
2023/05/25 10:16:39;;;;;;;2.58;0.95;;;15.40;1.00;;;;;;20935678;28;20049;-38
2023/05/25 10:27:02;;;;;;;2.88;1.63;;;15.80;1.00;;;;;;20956811;28;20036;-39
2023/05/25 10:37:28;;;;;;;3.63;1.40;;;15.90;1.00;;;;;;20928031;28;20041;-39
2023/05/25 10:47:50;;;;;;;3.90;1.50;;;15.70;1.00;;;;;;20940990;28;20078;-38
2023/05/25 10:58:12;;;;;;;5.28;1.85;;;15.90;1.00;;;;;;20940237;28;20383;-38
2023/05/25 11:08:59;;;;;;;4.38;2.08;;;16.10;1.00;;;;;;20942483;28;20388;-39
2023/05/25 11:19:20;;;;;;;6.85;2.15;;;16.00;1.00;;;;;;20934368;28;20044;-38
2023/05/25 11:29:41;;;;;;;4.72;1.45;;;16.10;1.00;;;;;;20942938;28;20052;-38
2023/05/25 11:40:06;;;;;;;2.33;1.10;;;16.10;1.00;;;;;;20941370;28;20117;-38
2023/05/25 11:50:27;;;;;;;4.63;1.25;;;16.50;1.00;;;;;;20936707;28;20146;-39
2023/05/25 12:00:48;;;;;;;4.68;1.80;;;16.60;1.00;;;;;;20938867;28;20580;-38
2023/05/25 12:11:09;;;;;;;3.45;1.00;;;16.70;1.00;;;;;;20947101;28;20102;-39
2023/05/25 12:21:31;;;;;;;3.42;1.08;;;16.90;1.00;;;;;;20945935;28;20519;-39
2023/05/25 12:32:00;;;;;;;4.68;1.15;;;17.20;1.00;;;;;;20943863;28;20125;-38
2023/05/25 12:42:21;;;;;;;3.60;1.42;;;16.80;1.00;;;;;;20944874;28;20205;-39
2023/05/25 12:52:45;;;;;;;7.50;1.05;;;16.60;1.00;;;;;;20941364;28;20109;-38
2023/05/25 13:03:06;;;;;;;10.05;2.30;;;16.80;1.00;;;;;;20943336;28;20565;-38
2023/05/25 13:13:27;;;;;;;4.03;1.40;;;16.60;1.00;;;;;;20951189;28;20040;-39
2023/05/25 13:23:48;;;;;;;9.70;3.15;;;16.40;1.00;;;;;;20946440;28;20867;-39
2023/05/25 13:34:09;;;;;;;7.28;2.03;;;16.30;1.00;;;;;;20939814;28;20133;-39
2023/05/25 13:44:32;;;;;;;5.38;1.35;;;16.50;1.00;;;;;;20946915;28;20450;-39
2023/05/25 13:54:53;;;;;;;4.05;1.23;;;16.60;1.00;;;;;;20887184;28;20115;-39
2023/05/25 14:05:14;;;;;;;10.18;1.90;;;16.70;1.00;;;;;;20872300;28;20591;-39
2023/05/25 14:15:35;;;;;;;12.02;2.83;;;16.90;1.00;;;;;;20867578;28;20091;-38
2023/05/25 14:25:56;;;;;;;5.10;1.90;;;17.50;1.00;;;;;;20933496;28;20064;-39
2023/05/25 14:36:17;;;;;;;9.80;2.72;;;17.90;1.00;;;;;;20880880;28;20071;-39
2023/05/25 14:46:38;;;;;;;6.13;2.13;;;17.90;1.00;;;;;;20865422;28;20496;-39
2023/05/25 14:57:00;;;;;;;8.50;2.83;;;17.60;1.00;;;;;;20933351;28;20212;-39
2023/05/25 15:07:21;;;;;;;7.10;2.10;;;17.70;1.00;;;;;;20918312;28;20137;-39
2023/05/25 15:17:42;;;;;;;11.77;2.35;;;17.60;1.00;;;;;;20941238;28;20736;-38
2023/05/25 15:28:03;;;;;;;10.65;2.03;;;17.40;1.00;;;;;;20949152;28;20036;-39
2023/05/25 15:38:24;;;;;;;12.55;2.17;;;17.30;1.00;;;;;;20947812;28;20109;-39
2023/05/25 15:48:45;;;;;;;14.55;2.63;;;17.10;1.00;;;;;;20959455;28;20561;-39
2023/05/25 15:59:06;;;;;;;9.55;3.08;;;17.00;1.00;;;;;;20951649;28;20363;-38
2023/05/25 16:09:27;;;;;;;11.93;2.53;;;16.90;1.00;;;;;;20955359;28;20142;-38
2023/05/25 16:19:37;;;;;;;12.95;3.13;;;16.80;1.00;;;;;;20946304;28;20055;-39
2023/05/25 16:29:58;;;;;;;7.68;2.30;;;16.70;1.00;;;;;;20941706;28;20476;-39
2023/05/25 16:40:19;;;;;;;6.97;2.50;;;16.50;1.00;;;;;;20952614;28;20117;-39
2023/05/25 16:50:40;;;;;;;8.70;2.65;;;16.30;1.00;;;;;;20947954;28;20033;-38
2023/05/25 17:01:01;;;;;;;7.65;2.70;;;16.10;1.00;;;;;;20963414;28;20041;-39
2023/05/25 17:11:25;;;;;;;8.75;2.28;;;15.80;1.00;;;;;;20903648;28;20137;-39
2023/05/25 17:21:46;;;;;;;9.18;3.00;;;15.60;1.00;;;;;;20957840;28;20094;-39
2023/05/25 17:32:07;;;;;;;16.95;4.25;;;15.50;1.00;;;;;;20939948;28;20078;-39
2023/05/25 17:42:28;;;;;;;15.88;3.05;;;15.40;1.00;;;;;;20916733;28;20116;-39
2023/05/25 17:52:50;;;;;;;16.90;3.58;;;15.20;1.00;;;;;;20914619;28;20067;-39
2023/05/25 18:03:10;;;;;;;14.30;4.10;;;15.10;1.00;;;;;;20924404;28;20078;-39
2023/05/25 18:13:31;;;;;;;13.50;3.63;;;14.90;1.00;;;;;;20930578;28;20209;-41
2023/05/25 18:23:53;;;;;;;12.60;2.97;;;14.90;1.00;;;;;;20950595;28;20032;-39
2023/05/25 18:34:13;;;;;;;9.00;2.47;;;14.60;1.00;;;;;;20944800;28;20044;-40
2023/05/25 18:44:35;;;;;;;8.48;2.67;;;14.50;1.00;;;;;;20914023;28;20040;-40
2023/05/25 18:54:56;;;;;;;15.30;4.30;;;14.30;1.00;;;;;;20914878;28;20127;-40
2023/05/25 19:05:18;;;;;;;10.65;3.42;;;14.10;1.00;;;;;;20916492;28;20622;-40
2023/05/25 19:15:39;;;;;;;7.75;2.97;;;14.00;1.00;;;;;;20897274;28;21939;-40
2023/05/25 19:26:00;;;;;;;8.13;2.45;;;13.80;1.00;;;;;;20917993;28;20536;-41
2023/05/25 19:36:22;;;;;;;24.25;4.53;;;13.70;1.00;;;;;;20916091;28;20102;-40
2023/05/25 19:46:43;;;;;;;8.20;1.92;;;13.50;1.00;;;;;;20916834;28;20463;-41
2023/05/25 19:57:05;;;;;;;11.32;2.75;;;13.40;1.00;;;;;;20912987;28;20064;-39
2023/05/25 20:07:26;;;;;;;14.05;3.88;;;13.30;1.00;;;;;;20915879;28;20095;-41
2023/05/25 20:17:47;;;;;;;10.63;3.00;;;13.20;1.00;;;;;;20926822;28;20114;-41
2023/05/25 20:28:08;;;;;;;14.95;2.60;;;13.10;1.00;;;;;;20948113;28;20052;-39
2023/05/25 20:38:29;;;;;;;12.82;3.42;;;12.90;1.00;;;;;;20951624;28;20578;-39
2023/05/25 20:48:52;;;;;;;16.35;3.35;;;12.90;1.00;;;;;;20923086;28;20064;-38
2023/05/25 20:59:13;;;;;;;9.00;2.10;;;12.80;1.00;;;;;;20919205;28;20905;-39
2023/05/25 21:09:34;;;;;;;10.35;2.83;;;12.70;1.00;;;;;;20920172;28;20064;-40
2023/05/25 21:19:55;;;;;;;13.23;2.83;;;12.50;1.00;;;;;;20927761;28;21087;-38
2023/05/25 21:30:16;;;;;;;10.82;2.88;;;12.40;1.00;;;;;;20931867;28;20491;-39
2023/05/25 21:40:37;;;;;;;10.07;2.67;;;12.30;1.00;;;;;;20928138;28;20170;-40
2023/05/25 21:50:58;;;;;;;6.65;2.00;;;12.20;1.00;;;;;;20917930;28;20123;-39
2023/05/25 22:01:21;;;;;;;17.30;3.83;;;12.00;1.00;;;;;;20916404;28;20036;-40
2023/05/25 22:11:42;;;;;;;9.77;2.33;;;11.90;1.00;;;;;;20920604;28;20128;-39
2023/05/25 22:22:03;;;;;;;8.50;2.30;;;11.80;1.00;;;;;;20917355;28;20578;-40
2023/05/25 22:32:25;;;;;;;14.80;2.90;;;11.70;1.00;;;;;;20917658;28;20071;-40
2023/05/25 22:42:49;;;;;;;14.10;2.50;;;11.60;1.00;;;;;;20912612;28;20144;-40
2023/05/25 22:53:11;;;;;;;12.13;3.20;;;11.50;1.00;;;;;;20921529;28;20059;-40
2023/05/25 23:03:32;;;;;;;8.02;2.42;;;11.40;1.00;;;;;;20913492;28;20064;-40
2023/05/25 23:13:53;;;;;;;12.15;2.50;;;11.30;1.00;;;;;;20919875;28;20061;-41
2023/05/25 23:24:14;;;;;;;11.60;2.63;;;11.10;1.00;;;;;;20922540;28;20083;-40
2023/05/25 23:34:35;;;;;;;6.97;1.63;;;11.00;1.00;;;;;;20913060;28;20060;-41
2023/05/25 23:44:56;;;;;;;10.20;3.10;;;11.00;1.00;;;;;;20913556;28;20167;-41
2023/05/25 23:55:17;;;;;;;15.88;2.92;;;10.80;1.00;;;;;;20927534;28;20174;-40
